Time;durP1;ratioP1;P1;durP2;ratioP2;P2;SDS_P1;SDS_P2;PMS_P1;PMS_P2;Temp;Humidity;BMP_temperature;BMP_pressure;BME280_temperature;BME280_humidity;BME280_pressure;Samples;Min_cycle;Max_cycle;Signal;HPM_P1;HPM_P2
2023/06/06 00:00:19;;;;;;;15.30;9.68;;;;;;;14.06;79.25;101960.47;5034757;28;20057;-82
2023/06/06 00:02:45;;;;;;;14.23;9.25;;;;;;;14.04;79.75;101967.75;5033200;28;20018;-82
2023/06/06 00:05:13;;;;;;;13.77;9.50;;;;;;;14.03;79.18;101962.53;5038541;28;20029;-81
2023/06/06 00:07:39;;;;;;;12.93;9.07;;;;;;;13.92;79.60;101963.28;5038941;28;20029;-83
2023/06/06 00:10:07;;;;;;;12.07;8.82;;;;;;;13.90;79.86;101957.22;5036264;28;20036;-82
2023/06/06 00:12:32;;;;;;;14.48;9.77;;;;;;;13.90;79.60;101964.38;5038864;28;20029;-82
2023/06/06 00:14:59;;;;;;;13.25;9.10;;;;;;;13.84;79.38;101961.22;5032347;28;20388;-83
2023/06/06 00:17:25;;;;;;;14.52;9.75;;;;;;;13.76;80.22;101952.06;5034387;28;20063;-81
2023/06/06 00:19:52;;;;;;;13.95;9.23;;;;;;;13.69;80.34;101957.81;5038938;28;20061;-81
2023/06/06 00:22:22;;;;;;;13.85;9.27;;;;;;;13.73;80.51;101963.78;5032720;28;20028;-83
2023/06/06 00:24:52;;;;;;;13.63;9.48;;;;;;;13.73;80.07;101958.44;5032188;28;20036;-83
2023/06/06 00:27:18;;;;;;;18.75;9.60;;;;;;;13.60;80.85;101962.97;5038094;28;20032;-82
2023/06/06 00:29:43;;;;;;;13.05;9.73;;;;;;;13.59;80.95;101958.59;5039197;28;20113;-81
2023/06/06 00:32:09;;;;;;;13.43;9.65;;;;;;;13.54;81.17;101956.25;5030792;28;20167;-82
2023/06/06 00:34:34;;;;;;;13.68;9.45;;;;;;;13.49;80.99;101959.25;5038269;28;20545;-81
2023/06/06 00:37:00;;;;;;;17.45;9.82;;;;;;;13.48;81.34;101964.69;5037429;28;20083;-81
2023/06/06 00:39:25;;;;;;;13.32;9.38;;;;;;;13.43;81.40;101969.50;5037723;28;20502;-81
2023/06/06 00:41:50;;;;;;;11.87;9.13;;;;;;;13.43;81.85;101954.34;5023880;28;20026;-81
2023/06/06 00:44:15;;;;;;;13.30;9.43;;;;;;;13.36;81.76;101963.75;5034010;28;20750;-81
2023/06/06 00:46:42;;;;;;;12.13;9.13;;;;;;;13.38;81.74;101963.66;5037253;28;20521;-81
2023/06/06 00:49:12;;;;;;;13.75;10.45;;;;;;;13.37;82.00;101959.25;5037543;28;20025;-82
2023/06/06 00:51:39;;;;;;;14.07;9.45;;;;;;;13.32;81.52;101964.91;5038799;28;20033;-82
2023/06/06 00:54:06;;;;;;;13.00;10.07;;;;;;;13.28;81.58;101968.75;5047342;28;20038;-82
2023/06/06 00:56:35;;;;;;;12.90;9.40;;;;;;;13.25;81.98;101961.78;5031361;28;20025;-82
2023/06/06 00:59:01;;;;;;;16.83;10.18;;;;;;;13.21;81.84;101956.81;5037072;28;20041;-81
2023/06/06 01:01:28;;;;;;;14.45;9.75;;;;;;;13.16;82.57;101969.63;5037954;28;20446;-81
2023/06/06 01:03:57;;;;;;;12.40;9.63;;;;;;;13.18;81.53;101962.34;5038383;28;20071;-81
2023/06/06 01:06:25;;;;;;;11.52;9.45;;;;;;;13.16;81.53;101964.28;5038091;28;20026;-82
2023/06/06 01:08:50;;;;;;;15.68;9.95;;;;;;;13.06;82.17;101959.56;5037484;28;20387;-81
2023/06/06 01:11:25;;;;;;;13.40;9.93;;;;;;;13.02;82.87;101963.38;5038543;28;20034;-82
2023/06/06 01:14:05;;;;;;;11.63;9.32;;;;;;;13.01;82.18;101960.84;5026101;28;20041;-82
2023/06/06 01:16:34;;;;;;;18.10;10.40;;;;;;;12.95;83.57;101962.13;5036292;28;20025;-81
2023/06/06 01:19:01;;;;;;;14.40;10.18;;;;;;;12.93;83.11;101967.56;5040729;28;20027;-81
2023/06/06 01:21:40;;;;;;;17.60;9.90;;;;;;;12.94;82.48;101963.94;5041627;28;20072;-81
2023/06/06 01:24:06;;;;;;;12.50;9.98;;;;;;;12.82;83.24;101966.59;5031949;28;20084;-81
2023/06/06 01:26:31;;;;;;;13.32;9.50;;;;;;;12.73;83.69;101963.59;5040859;28;20037;-82
2023/06/06 01:28:57;;;;;;;14.63;9.45;;;;;;;12.76;83.45;101968.72;5029615;28;20027;-82
2023/06/06 01:31:27;;;;;;;14.48;9.85;;;;;;;12.71;83.81;101968.16;5037361;28;20115;-82
2023/06/06 01:34:00;;;;;;;12.15;9.57;;;;;;;12.61;84.00;101950.22;5038449;28;20034;-82
2023/06/06 01:36:42;;;;;;;11.90;9.70;;;;;;;12.63;83.69;101951.84;5038218;28;20017;-82
2023/06/06 01:39:12;;;;;;;15.65;9.52;;;;;;;12.57;84.73;101969.13;5034813;28;20040;-81
2023/06/06 01:41:39;;;;;;;15.73;10.27;;;;;;;12.51;84.42;101958.84;5040747;28;20028;-81
2023/06/06 01:44:07;;;;;;;13.93;10.48;;;;;;;12.50;84.71;101962.47;5030297;28;20065;-81
2023/06/06 01:46:35;;;;;;;12.23;9.77;;;;;;;12.48;84.60;101964.38;5034667;28;20021;-81
2023/06/06 01:49:00;;;;;;;14.38;9.77;;;;;;;12.46;84.72;101965.47;5036225;28;20081;-82
2023/06/06 01:51:27;;;;;;;12.75;9.82;;;;;;;12.46;84.30;101965.47;5034909;28;20049;-82
2023/06/06 01:53:56;;;;;;;11.65;9.88;;;;;;;12.36;85.26;101965.22;5035831;28;20049;-82
2023/06/06 01:56:21;;;;;;;13.25;10.00;;;;;;;12.36;85.30;101966.06;5028379;28;20033;-82
2023/06/06 01:58:48;;;;;;;12.07;9.02;;;;;;;12.27;85.32;101968.47;5041890;28;20034;-81
2023/06/06 02:01:13;;;;;;;13.40;9.95;;;;;;;12.24;85.80;101966.00;5042288;28;20021;-81
2023/06/06 02:03:39;;;;;;;13.27;9.93;;;;;;;12.15;85.76;101964.81;5052639;28;20145;-81
2023/06/06 02:06:05;;;;;;;13.30;10.73;;;;;;;12.09;86.28;101960.75;5052600;28;20033;-82
2023/06/06 02:08:30;;;;;;;13.50;9.88;;;;;;;12.11;85.80;101963.31;5043300;28;20026;-81
2023/06/06 02:10:56;;;;;;;14.73;9.82;;;;;;;12.10;85.86;101964.25;5038419;28;20028;-81
2023/06/06 02:13:21;;;;;;;13.60;9.98;;;;;;;12.09;86.31;101966.06;5039081;28;20053;-81
2023/06/06 02:15:47;;;;;;;14.82;10.38;;;;;;;11.98;86.44;101963.25;5042471;28;20037;-81
2023/06/06 02:18:12;;;;;;;11.93;9.63;;;;;;;12.03;86.55;101964.66;5038490;28;20021;-81
2023/06/06 02:20:37;;;;;;;13.07;9.82;;;;;;;12.02;86.15;101954.09;5042080;28;20109;-82
2023/06/06 02:23:03;;;;;;;12.65;9.57;;;;;;;12.02;86.07;101965.63;5041652;28;20403;-82
2023/06/06 02:25:28;;;;;;;16.60;10.20;;;;;;;11.95;86.86;101960.78;5042732;28;20025;-82
2023/06/06 02:27:54;;;;;;;14.75;9.88;;;;;;;11.92;87.07;101969.81;5039235;28;20032;-82
2023/06/06 02:30:20;;;;;;;13.85;10.38;;;;;;;11.90;86.52;101966.34;5032876;28;20025;-82
2023/06/06 02:32:45;;;;;;;14.52;10.20;;;;;;;11.85;86.32;101963.13;5039650;28;20411;-82
2023/06/06 02:35:10;;;;;;;14.55;10.23;;;;;;;11.84;87.01;101962.28;5040183;28;20079;-82
2023/06/06 02:37:36;;;;;;;12.18;9.43;;;;;;;11.85;86.41;101969.31;5034902;28;20053;-81
2023/06/06 02:40:08;;;;;;;13.98;10.05;;;;;;;11.82;86.21;101955.34;5039934;28;20037;-81
2023/06/06 02:42:38;;;;;;;15.15;10.13;;;;;;;11.74;87.11;101957.63;5037959;28;20030;-82
2023/06/06 02:45:08;;;;;;;12.88;9.88;;;;;;;11.72;87.39;101962.22;5031194;28;20076;-82
2023/06/06 02:47:33;;;;;;;15.00;10.30;;;;;;;11.63;87.63;101948.53;5039862;28;20176;-81
2023/06/06 02:49:59;;;;;;;15.55;9.85;;;;;;;11.69;87.01;101967.72;5038151;28;20052;-82
2023/06/06 02:52:25;;;;;;;13.57;9.68;;;;;;;11.69;87.20;101963.28;5036201;28;20033;-82
2023/06/06 02:54:50;;;;;;;13.65;10.00;;;;;;;11.65;87.41;101967.06;5040400;28;20092;-82
2023/06/06 02:57:16;;;;;;;12.73;9.50;;;;;;;11.62;87.73;101967.25;5040476;28;20163;-82
2023/06/06 02:59:42;;;;;;;14.48;10.50;;;;;;;11.64;87.17;101968.88;5033294;28;20072;-81
2023/06/06 03:02:09;;;;;;;13.30;9.82;;;;;;;11.57;87.44;101964.03;5036524;28;20094;-81
2023/06/06 03:04:35;;;;;;;14.15;10.05;;;;;;;11.58;87.79;101973.75;5041066;28;20084;-82
2023/06/06 03:07:00;;;;;;;16.20;9.75;;;;;;;11.55;87.41;101964.13;5031050;28;20017;-82
2023/06/06 03:09:27;;;;;;;14.77;9.93;;;;;;;11.52;87.40;101969.63;5042655;28;20025;-81
2023/06/06 03:11:52;;;;;;;11.35;8.85;;;;;;;11.55;87.35;101964.13;5037676;28;20041;-81
2023/06/06 03:14:18;;;;;;;14.50;10.35;;;;;;;11.47;87.35;101959.31;5042998;28;20026;-81
2023/06/06 03:16:43;;;;;;;14.60;9.57;;;;;;;11.47;87.46;101964.63;5046937;28;20029;-81
2023/06/06 03:19:10;;;;;;;13.63;10.18;;;;;;;11.41;87.51;101957.03;5044206;28;20112;-81
2023/06/06 03:21:36;;;;;;;12.10;9.15;;;;;;;11.37;87.86;101959.97;5037458;28;20049;-81
2023/06/06 03:24:02;;;;;;;14.35;10.27;;;;;;;11.33;87.54;101966.44;5046728;28;20029;-81
2023/06/06 03:26:28;;;;;;;13.07;9.52;;;;;;;11.35;88.00;101969.84;5041709;28;20034;-82
2023/06/06 03:28:57;;;;;;;16.95;9.63;;;;;;;11.30;87.72;101962.16;5052177;28;20064;-82
2023/06/06 03:31:23;;;;;;;16.02;9.52;;;;;;;11.21;88.29;101957.41;5043004;28;20037;-81
2023/06/06 03:33:51;;;;;;;12.05;9.48;;;;;;;11.29;88.15;101965.75;5042017;28;20080;-81
2023/06/06 03:36:17;;;;;;;12.52;9.60;;;;;;;11.22;88.43;101961.75;5040572;28;20033;-82
2023/06/06 03:38:42;;;;;;;14.40;10.20;;;;;;;11.21;88.86;101963.59;5035046;28;20018;-82
2023/06/06 03:41:08;;;;;;;15.18;9.85;;;;;;;11.26;88.23;101969.47;5027200;28;20034;-82
2023/06/06 03:43:34;;;;;;;15.82;10.70;;;;;;;11.22;88.53;101973.25;5040095;28;20029;-83
2023/06/06 03:46:00;;;;;;;16.95;10.50;;;;;;;11.11;88.72;101962.44;5039801;28;20022;-82
2023/06/06 03:48:25;;;;;;;13.57;9.55;;;;;;;11.08;88.75;101958.16;5031581;28;20026;-82
2023/06/06 03:50:51;;;;;;;11.68;8.88;;;;;;;11.16;88.79;101968.31;5033029;28;20029;-81
2023/06/06 03:53:16;;;;;;;15.52;10.20;;;;;;;11.13;88.96;101965.84;5039987;28;20029;-81
2023/06/06 03:55:44;;;;;;;14.13;9.88;;;;;;;11.10;89.25;101966.88;5047334;28;20037;-81
2023/06/06 03:58:16;;;;;;;14.35;9.75;;;;;;;11.09;89.21;101965.19;5032347;28;20081;-81
2023/06/06 04:00:43;;;;;;;12.98;9.95;;;;;;;11.11;89.24;101970.41;5040200;28;20034;-81
2023/06/06 04:03:09;;;;;;;16.33;10.00;;;;;;;11.11;89.23;101979.22;5039844;28;20025;-81
2023/06/06 04:05:34;;;;;;;15.63;9.77;;;;;;;11.09;89.64;101977.59;5037885;28;20033;-82
2023/06/06 04:08:00;;;;;;;15.38;10.32;;;;;;;11.04;89.51;101969.94;5032155;28;20022;-81
2023/06/06 04:10:25;;;;;;;15.55;10.38;;;;;;;11.04;89.74;101971.72;5035623;28;20017;-82
2023/06/06 04:12:51;;;;;;;16.95;10.07;;;;;;;11.06;90.15;101977.81;5039625;28;20037;-81
2023/06/06 04:15:17;;;;;;;13.75;9.63;;;;;;;11.02;90.08;101973.63;5040170;28;20053;-81
2023/06/06 04:17:42;;;;;;;11.88;10.15;;;;;;;11.07;89.96;101972.41;5040000;28;20025;-82
2023/06/06 04:20:08;;;;;;;13.07;9.32;;;;;;;11.06;89.86;101977.81;5039478;28;20049;-82
2023/06/06 04:22:34;;;;;;;12.23;9.90;;;;;;;11.02;90.12;101971.81;5040266;28;20033;-81
2023/06/06 04:24:59;;;;;;;14.43;10.02;;;;;;;11.03;90.37;101978.84;5053913;28;20037;-81
2023/06/06 04:27:25;;;;;;;14.25;9.73;;;;;;;11.04;90.65;101975.25;5040975;28;20033;-81
2023/06/06 04:29:51;;;;;;;14.43;9.43;;;;;;;11.08;90.43;101981.22;5040036;28;20136;-81
2023/06/06 04:32:21;;;;;;;17.02;10.23;;;;;;;11.06;90.66;101969.84;5040177;28;20065;-81
2023/06/06 04:34:46;;;;;;;;;;;;;;;11.22;87.48;101985.69;5039305;28;20376;-82
2023/06/06 04:37:14;;;;;;;18.52;10.05;;;;;;;11.09;90.52;101985.59;5029983;28;19917;-80
2023/06/06 04:39:40;;;;;;;13.48;9.23;;;;;;;10.93;90.44;101948.44;5034642;28;20021;-81
2023/06/06 04:42:06;;;;;;;12.75;9.38;;;;;;;11.08;90.84;101974.09;5038773;28;20033;-80
2023/06/06 04:44:41;;;;;;;13.05;9.55;;;;;;;11.16;90.93;101989.59;5029148;28;20056;-81
2023/06/06 04:47:08;;;;;;;15.10;9.70;;;;;;;11.23;90.97;101980.28;5041660;28;20679;-81
2023/06/06 04:49:35;;;;;;;13.80;9.82;;;;;;;11.29;90.40;101979.03;5044320;28;20037;-81
2023/06/06 04:52:12;;;;;;;14.30;9.35;;;;;;;11.37;90.17;101979.44;5043523;28;20066;-81
2023/06/06 04:54:39;;;;;;;17.70;9.90;;;;;;;11.44;90.64;101980.78;5030490;28;20029;-82
2023/06/06 04:57:08;;;;;;;16.08;10.40;;;;;;;11.49;90.39;101969.88;5043994;28;20040;-81
2023/06/06 04:59:35;;;;;;;13.32;9.95;;;;;;;11.54;89.67;101977.53;5036651;28;20014;-81
2023/06/06 05:02:02;;;;;;;14.73;10.05;;;;;;;11.63;89.78;101976.97;5038514;28;20036;-81
2023/06/06 05:04:29;;;;;;;15.15;9.68;;;;;;;11.70;89.48;101969.44;5030635;28;20086;-81
2023/06/06 05:06:55;;;;;;;15.82;9.30;;;;;;;11.82;89.21;101980.19;5042063;28;20045;-81
2023/06/06 05:09:21;;;;;;;14.38;9.98;;;;;;;11.88;89.02;101980.75;5030019;28;20026;-81
2023/06/06 05:11:49;;;;;;;15.13;9.30;;;;;;;11.93;88.12;101978.66;5043659;28;20045;-81
2023/06/06 05:14:15;;;;;;;13.85;9.93;;;;;;;11.98;87.85;101979.22;5034417;28;20084;-82
2023/06/06 05:16:40;;;;;;;15.10;9.77;;;;;;;11.99;87.57;101984.44;5027230;28;20061;-82
2023/06/06 05:19:06;;;;;;;14.57;9.65;;;;;;;12.07;87.37;101981.28;5041422;28;20033;-82
2023/06/06 05:21:33;;;;;;;17.60;9.75;;;;;;;12.13;87.42;101988.03;5043267;28;20049;-82
2023/06/06 05:23:58;;;;;;;13.68;9.90;;;;;;;12.17;87.90;101982.41;5055562;28;20029;-82
2023/06/06 05:26:25;;;;;;;19.92;10.52;;;;;;;12.25;87.05;101989.03;5051736;28;20035;-82
2023/06/06 05:28:50;;;;;;;12.70;8.90;;;;;;;12.29;86.24;101988.75;5046496;28;20049;-81
2023/06/06 05:31:20;;;;;;;14.93;9.40;;;;;;;12.37;86.83;101982.88;5045392;28;20033;-81
2023/06/06 05:33:48;;;;;;;11.88;9.40;;;;;;;12.48;85.80;101982.19;5034556;28;20315;-81
2023/06/06 05:36:14;;;;;;;15.18;10.07;;;;;;;12.64;85.39;101990.88;5026702;28;20057;-81
2023/06/06 05:38:40;;;;;;;15.77;9.25;;;;;;;12.79;84.85;101991.66;5041835;28;20025;-80
2023/06/06 05:41:05;;;;;;;13.85;9.73;;;;;;;12.91;83.71;101992.63;5053189;28;20064;-82
2023/06/06 05:43:33;;;;;;;13.32;9.07;;;;;;;13.09;83.57;101995.81;5034453;28;20099;-82
2023/06/06 05:46:00;;;;;;;11.88;8.73;;;;;;;13.17;82.40;101976.63;5036214;28;20533;-82
2023/06/06 05:48:26;;;;;;;14.27;9.50;;;;;;;13.38;81.39;101995.66;5041495;28;20593;-81
2023/06/06 05:50:51;;;;;;;12.37;9.07;;;;;;;13.58;80.84;101994.25;5027355;28;20065;-82
2023/06/06 05:53:16;;;;;;;13.65;9.32;;;;;;;13.74;80.39;101992.22;5027722;28;20619;-82
2023/06/06 05:55:42;;;;;;;13.93;10.10;;;;;;;13.87;79.25;101992.16;5029509;28;20033;-82
2023/06/06 05:58:07;;;;;;;12.63;8.75;;;;;;;14.00;78.20;101990.31;5039536;28;20765;-81
2023/06/06 06:00:33;;;;;;;12.65;9.52;;;;;;;14.12;77.35;101993.94;5041030;28;20071;-82
2023/06/06 06:03:01;;;;;;;13.18;9.05;;;;;;;14.32;77.48;101988.91;5041217;28;20026;-82
2023/06/06 06:05:28;;;;;;;14.00;8.45;;;;;;;14.49;76.51;101987.63;5036630;28;20378;-82
2023/06/06 06:07:55;;;;;;;11.77;9.13;;;;;;;14.65;75.37;101987.38;5034878;28;20096;-82
2023/06/06 06:10:21;;;;;;;16.08;9.50;;;;;;;14.84;75.25;101982.34;5040368;28;20425;-81
2023/06/06 06:12:47;;;;;;;12.45;8.82;;;;;;;15.00;74.88;101987.34;5032307;28;20033;-81
2023/06/06 06:15:12;;;;;;;12.80;8.80;;;;;;;15.16;73.96;101993.22;5040716;28;20399;-81
2023/06/06 06:17:37;;;;;;;10.82;7.82;;;;;;;15.25;72.93;101991.66;5041103;28;20108;-81
2023/06/06 06:20:08;;;;;;;11.10;8.68;;;;;;;15.40;72.76;101992.25;5026480;28;20480;-82
2023/06/06 06:22:37;;;;;;;13.05;8.52;;;;;;;15.59;71.75;101994.34;5030635;28;20033;-82
2023/06/06 06:25:03;;;;;;;13.07;9.07;;;;;;;15.73;71.20;101987.88;5044326;28;20025;-82
2023/06/06 06:27:30;;;;;;;12.35;8.73;;;;;;;15.78;70.31;101991.06;5041268;28;20109;-82
2023/06/06 06:29:56;;;;;;;12.85;8.75;;;;;;;15.92;69.63;102000.69;5032624;28;20037;-81
2023/06/06 06:32:22;;;;;;;13.82;8.93;;;;;;;16.06;69.22;102002.25;5039460;28;20047;-82
2023/06/06 06:34:47;;;;;;;13.50;8.52;;;;;;;16.21;69.03;102006.34;5041528;28;20033;-82
2023/06/06 06:37:12;;;;;;;12.40;8.10;;;;;;;16.48;68.30;102002.34;5038821;28;20060;-82
2023/06/06 06:39:38;;;;;;;14.93;8.87;;;;;;;16.55;67.72;101994.66;5040023;28;20363;-82
2023/06/06 06:42:03;;;;;;;11.00;7.95;;;;;;;16.70;67.46;101996.03;5039571;28;20284;-82
2023/06/06 06:44:29;;;;;;;12.93;8.50;;;;;;;16.81;66.74;101995.13;5030910;28;20548;-80
2023/06/06 06:46:54;;;;;;;10.63;8.20;;;;;;;16.92;66.30;101988.88;5033782;28;20506;-79
2023/06/06 06:49:20;;;;;;;11.05;8.15;;;;;;;17.17;65.57;102004.59;5025317;28;20037;-79
2023/06/06 06:51:45;;;;;;;12.05;8.52;;;;;;;17.32;64.90;102005.09;5037626;28;20077;-81
2023/06/06 06:54:15;;;;;;;11.43;8.30;;;;;;;17.57;63.97;102000.25;5028448;28;20045;-82
2023/06/06 06:56:41;;;;;;;16.48;8.88;;;;;;;17.78;64.32;102007.41;5039690;28;20025;-81
2023/06/06 06:59:07;;;;;;;12.70;8.65;;;;;;;17.93;62.14;102000.69;5037811;28;20109;-81
2023/06/06 07:01:33;;;;;;;11.40;8.45;;;;;;;17.98;61.38;102003.81;5039177;28;20044;-81
2023/06/06 07:03:59;;;;;;;12.00;8.48;;;;;;;18.12;61.88;101995.34;5038719;28;20033;-82
2023/06/06 07:06:24;;;;;;;12.50;8.40;;;;;;;18.37;60.83;102005.69;5039111;28;20025;-81
2023/06/06 07:08:52;;;;;;;11.55;8.27;;;;;;;18.46;60.52;102008.41;5039409;28;20038;-81
2023/06/06 07:11:17;;;;;;;11.35;7.80;;;;;;;18.74;60.64;102002.31;5037608;28;20054;-82
2023/06/06 07:13:43;;;;;;;11.82;8.00;;;;;;;18.97;60.66;101992.13;5025717;28;20030;-81
2023/06/06 07:16:09;;;;;;;10.70;7.82;;;;;;;19.30;58.15;101993.47;5032625;28;20022;-83
2023/06/06 07:18:34;;;;;;;13.20;7.75;;;;;;;19.51;58.02;102006.69;5034687;28;20025;-82
2023/06/06 07:21:00;;;;;;;10.82;8.10;;;;;;;19.50;56.72;102005.00;5039672;28;20376;-82
2023/06/06 07:23:25;;;;;;;13.43;7.82;;;;;;;19.72;57.13;102001.06;5038989;28;20483;-82
2023/06/06 07:25:51;;;;;;;12.98;7.93;;;;;;;19.76;55.67;101996.25;5030921;28;20026;-82
2023/06/06 07:28:18;;;;;;;10.95;8.02;;;;;;;19.88;55.24;101988.81;5038492;28;20444;-82
2023/06/06 07:30:43;;;;;;;11.60;8.38;;;;;;;20.11;56.41;101994.63;5039481;28;20021;-82
2023/06/06 07:33:09;;;;;;;14.57;7.70;;;;;;;20.13;54.46;101998.03;5039048;28;20498;-82
2023/06/06 07:35:36;;;;;;;14.10;7.43;;;;;;;20.33;54.08;101999.59;5038540;28;20383;-82
2023/06/06 07:38:02;;;;;;;15.10;7.68;;;;;;;20.55;54.56;101991.16;5039691;28;20368;-82
2023/06/06 07:40:28;;;;;;;13.57;7.88;;;;;;;20.70;54.73;101995.06;5040512;28;20096;-82
2023/06/06 07:42:54;;;;;;;13.77;7.90;;;;;;;20.98;53.55;101986.81;5037028;28;20030;-82
2023/06/06 07:45:20;;;;;;;13.38;8.52;;;;;;;21.12;51.49;101988.94;5038335;28;20025;-82
2023/06/06 07:47:45;;;;;;;12.45;7.30;;;;;;;21.25;52.23;101970.44;5038980;28;20052;-82
2023/06/06 07:50:11;;;;;;;12.40;7.40;;;;;;;21.62;51.46;101979.28;5038965;28;20041;-80
2023/06/06 07:52:38;;;;;;;12.65;7.18;;;;;;;21.77;50.46;101979.50;5038752;28;20025;-83
2023/06/06 07:55:05;;;;;;;9.95;7.32;;;;;;;21.89;52.11;101974.63;5039899;28;20026;-82
2023/06/06 07:57:31;;;;;;;10.48;7.13;;;;;;;22.24;49.94;101978.94;5039501;28;20018;-82
2023/06/06 07:59:56;;;;;;;10.88;8.02;;;;;;;22.38;49.40;101972.03;5038926;28;20167;-82
2023/06/06 08:02:22;;;;;;;11.27;7.20;;;;;;;22.47;50.34;101973.72;5039088;28;20029;-83
2023/06/06 08:04:47;;;;;;;11.23;7.18;;;;;;;22.72;49.07;101969.16;5037867;28;20033;-83
2023/06/06 08:07:13;;;;;;;10.80;6.97;;;;;;;22.92;48.18;101961.50;5039961;28;20543;-83
2023/06/06 08:09:39;;;;;;;11.07;7.28;;;;;;;23.08;46.81;101966.09;5040558;28;20025;-82
2023/06/06 08:12:05;;;;;;;12.02;7.53;;;;;;;23.15;47.80;101976.22;5040667;28;20041;-81
2023/06/06 08:14:35;;;;;;;10.48;7.07;;;;;;;23.31;47.35;101967.22;5041810;28;20021;-82
2023/06/06 08:17:02;;;;;;;11.43;7.75;;;;;;;23.76;46.12;101973.78;5045987;28;20037;-82
2023/06/06 08:19:27;;;;;;;11.30;7.15;;;;;;;23.92;45.45;101973.75;5032056;28;20087;-82
2023/06/06 08:21:53;;;;;;;12.33;7.83;;;;;;;23.99;45.01;101973.88;5041703;28;20056;-82
2023/06/06 08:24:18;;;;;;;10.65;7.18;;;;;;;24.20;43.83;101976.78;5049474;28;20272;-82
2023/06/06 08:26:44;;;;;;;8.73;7.10;;;;;;;24.15;44.42;101970.22;5048314;28;20030;-81
2023/06/06 08:29:09;;;;;;;10.20;7.95;;;;;;;24.28;44.45;101970.47;5048012;28;20633;-80
2023/06/06 08:31:34;;;;;;;8.30;7.30;;;;;;;24.44;42.85;101976.78;5048122;28;20029;-81
2023/06/06 08:33:59;;;;;;;9.63;7.57;;;;;;;24.60;43.86;101959.53;5047500;28;20494;-81
2023/06/06 08:36:25;;;;;;;13.53;7.40;;;;;;;24.76;42.33;101975.69;5043078;28;20426;-82
2023/06/06 08:38:51;;;;;;;9.55;6.78;;;;;;;24.85;42.32;101968.31;5042529;28;20295;-81
2023/06/06 08:41:17;;;;;;;13.55;7.70;;;;;;;24.87;42.91;101969.81;5045061;28;20026;-81
2023/06/06 08:43:46;;;;;;;11.50;6.80;;;;;;;24.99;43.00;101970.19;5047617;28;20048;-82
2023/06/06 08:46:12;;;;;;;10.88;7.03;;;;;;;25.19;42.28;101975.09;5055455;28;20029;-81
2023/06/06 08:48:40;;;;;;;13.05;7.20;;;;;;;25.21;40.95;101962.16;5050169;28;20077;-81
2023/06/06 08:51:07;;;;;;;11.40;7.10;;;;;;;25.36;42.14;101962.16;5042533;28;20048;-82
2023/06/06 08:53:33;;;;;;;13.73;7.20;;;;;;;25.66;41.24;101968.41;5034589;28;20040;-82
2023/06/06 08:56:00;;;;;;;10.70;7.18;;;;;;;25.56;40.85;101960.53;5043620;28;20030;-82
2023/06/06 08:58:29;;;;;;;9.95;6.75;;;;;;;25.92;39.98;101967.88;5043799;28;20029;-83
2023/06/06 09:00:57;;;;;;;;;;;;;;;26.50;43.00;101964.31;5043079;28;20026;-81
2023/06/06 09:03:22;;;;;;;9.32;6.85;;;;;;;26.39;38.80;101952.88;5042162;28;19909;-82
2023/06/06 09:05:51;;;;;;;11.43;6.65;;;;;;;26.42;39.20;101964.44;5029885;28;20025;-82
2023/06/06 09:08:19;;;;;;;10.00;7.28;;;;;;;26.44;39.20;101946.03;5041727;28;20029;-82
2023/06/06 09:10:44;;;;;;;13.40;7.78;;;;;;;26.76;39.20;101950.06;5041675;28;20021;-82
2023/06/06 09:13:09;;;;;;;8.85;6.70;;;;;;;26.68;39.20;101956.53;5040781;28;20360;-82
2023/06/06 09:15:34;;;;;;;12.33;6.83;;;;;;;26.95;38.39;101954.81;5041537;28;20057;-82
2023/06/06 09:18:00;;;;;;;15.50;6.53;;;;;;;27.10;38.80;101957.44;5041196;28;20424;-82
2023/06/06 09:20:25;;;;;;;11.73;6.43;;;;;;;27.45;38.03;101952.00;5041104;28;20296;-81
2023/06/06 09:22:51;;;;;;;13.00;7.07;;;;;;;27.53;36.95;101959.16;5043057;28;20327;-82
2023/06/06 09:25:26;;;;;;;10.13;6.65;;;;;;;27.66;37.01;101955.63;5040722;28;20032;-82
2023/06/06 09:28:18;;;;;;;9.73;7.10;;;;;;;27.84;37.54;101957.78;5040859;28;20037;-82
2023/06/06 09:30:43;;;;;;;12.80;7.47;;;;;;;27.69;36.17;101950.63;5037044;28;20169;-82
2023/06/06 09:33:09;;;;;;;10.10;6.40;;;;;;;27.46;36.24;101950.97;5040872;28;20053;-82
2023/06/06 09:35:37;;;;;;;9.90;6.40;;;;;;;27.54;36.18;101946.34;5041446;28;20028;-82
2023/06/06 09:38:16;;;;;;;11.23;7.00;;;;;;;27.96;36.99;101942.53;5038528;28;20043;-82
2023/06/06 09:40:44;;;;;;;10.85;6.93;;;;;;;27.95;35.93;101950.94;5041402;28;20033;-81
2023/06/06 09:43:10;;;;;;;9.68;6.47;;;;;;;28.03;35.71;101940.66;5041351;28;20486;-82
2023/06/06 09:45:47;;;;;;;9.30;6.35;;;;;;;28.17;36.65;101936.03;5047962;28;20022;-82
2023/06/06 09:48:12;;;;;;;11.52;7.10;;;;;;;28.22;35.68;101932.69;5029615;28;20029;-81
2023/06/06 09:50:41;;;;;;;9.67;6.77;;;;;;;28.08;35.85;101937.31;5036455;28;20037;-82
2023/06/06 09:53:12;;;;;;;9.25;6.32;;;;;;;28.43;36.61;101937.13;5041325;28;20283;-82
2023/06/06 09:55:39;;;;;;;10.35;6.55;;;;;;;28.64;35.69;101937.97;5041810;28;20392;-82
2023/06/06 09:58:06;;;;;;;9.02;6.55;;;;;;;28.77;35.98;101937.97;5035281;28;20482;-82
2023/06/06 10:00:37;;;;;;;10.40;6.17;;;;;;;28.90;35.10;101924.25;5042155;28;20034;-82
2023/06/06 10:03:04;;;;;;;7.65;6.25;;;;;;;28.77;35.42;101935.22;5043077;28;20081;-82
2023/06/06 10:05:31;;;;;;;11.10;6.60;;;;;;;29.13;34.00;101936.63;5043947;28;20025;-82
2023/06/06 10:07:57;;;;;;;9.45;6.47;;;;;;;29.08;34.21;101923.59;5043855;28;20025;-82
2023/06/06 10:10:23;;;;;;;9.65;6.18;;;;;;;29.15;34.64;101927.13;5042448;28;20037;-82
2023/06/06 10:12:50;;;;;;;10.95;6.70;;;;;;;29.16;33.51;101927.97;5036842;28;20056;-81
2023/06/06 10:15:16;;;;;;;12.77;6.90;;;;;;;29.03;33.34;101926.13;5039674;28;20857;-82
2023/06/06 10:17:43;;;;;;;10.95;6.60;;;;;;;29.03;33.48;101922.53;5041467;28;20040;-82
2023/06/06 10:20:11;;;;;;;12.20;6.63;;;;;;;29.27;33.17;101921.03;5039967;28;20057;-82
2023/06/06 10:22:38;;;;;;;13.35;5.78;;;;;;;29.41;33.85;101919.94;5041369;28;20022;-81
2023/06/06 10:25:06;;;;;;;12.10;5.95;;;;;;;29.38;33.36;101916.75;5041398;28;20025;-82
2023/06/06 10:27:42;;;;;;;15.05;6.40;;;;;;;29.65;33.51;101921.06;5039542;28;20036;-82
2023/06/06 10:30:18;;;;;;;11.52;6.30;;;;;;;29.59;33.10;101890.97;5041915;28;20025;-82
2023/06/06 10:32:51;;;;;;;9.65;6.40;;;;;;;29.84;33.92;101912.97;5039589;28;20114;-82
2023/06/06 10:35:17;;;;;;;8.35;6.15;;;;;;;30.17;33.26;101914.66;5041266;28;20061;-82
2023/06/06 10:38:01;;;;;;;10.40;6.07;;;;;;;30.40;33.62;101908.59;5026298;28;20040;-82
2023/06/06 10:40:26;;;;;;;9.93;5.45;;;;;;;30.41;31.54;101913.00;5031382;28;20025;-82
2023/06/06 10:42:53;;;;;;;8.15;6.05;;;;;;;30.22;32.56;101901.13;5039097;28;20022;-81
2023/06/06 10:45:42;;;;;;;12.25;5.95;;;;;;;30.51;33.43;101913.34;5037582;28;20042;-82
2023/06/06 10:48:08;;;;;;;12.60;5.70;;;;;;;30.36;31.86;101912.81;5034136;28;20033;-82
2023/06/06 10:50:33;;;;;;;11.23;5.88;;;;;;;30.62;32.62;101909.00;5039260;28;20029;-82
2023/06/06 10:53:05;;;;;;;6.57;5.33;;;;;;;30.77;30.78;101906.75;5034679;28;20468;-82
2023/06/06 10:55:30;;;;;;;10.85;5.55;;;;;;;30.80;31.78;101906.28;5038685;28;20322;-82
2023/06/06 10:58:11;;;;;;;7.43;4.90;;;;;;;31.12;32.20;101903.44;5038713;28;20033;-81
2023/06/06 11:00:42;;;;;;;10.27;5.57;;;;;;;30.96;31.12;101902.16;5038496;28;20034;-82
2023/06/06 11:03:10;;;;;;;8.27;5.30;;;;;;;31.09;31.18;101898.38;5038836;28;20033;-82
2023/06/06 11:06:00;;;;;;;9.88;6.55;;;;;;;31.09;32.11;101892.06;5039046;28;20025;-82
2023/06/06 11:08:32;;;;;;;9.63;5.90;;;;;;;31.06;32.12;101884.28;5034013;28;20033;-83
2023/06/06 11:11:21;;;;;;;9.90;5.80;;;;;;;31.19;33.26;101881.38;5035440;28;20418;-83
2023/06/06 11:13:56;;;;;;;12.73;5.45;;;;;;;31.16;31.70;101890.94;5050595;28;20077;-83
2023/06/06 11:16:29;;;;;;;8.65;5.32;;;;;;;31.15;30.98;101891.16;5038939;28;20028;-82